Time;durP1;ratioP1;P1;durP2;ratioP2;P2;SDS_P1;SDS_P2;PMS_P1;PMS_P2;Temp;Humidity;BMP_temperature;BMP_pressure;BME280_temperature;BME280_humidity;BME280_pressure;Samples;Min_cycle;Max_cycle;Signal;HPM_P1;HPM_P2
2021/10/18 00:00:58;;;;;;;26.00;16.00;;;;;;;;;;6251346;22;20186;-61
2021/10/18 00:03:24;;;;;;;26.17;15.40;;;;;;;;;;6278076;22;20163;-61
2021/10/18 00:05:50;;;;;;;24.02;15.20;;;;;;;;;;6278303;22;20140;-61
2021/10/18 00:08:16;;;;;;;27.98;15.73;;;;;;;;;;6278352;22;20192;-61
2021/10/18 00:10:42;;;;;;;29.65;16.55;;;;;;;;;;6278263;22;20147;-61
2021/10/18 00:13:08;;;;;;;25.02;16.10;;;;;;;;;;6278617;22;20151;-61
2021/10/18 00:15:34;;;;;;;25.38;15.80;;;;;;;;;;6277989;22;20214;-61
2021/10/18 00:18:00;;;;;;;28.20;16.85;;;;;;;;;;6278370;22;20482;-61
2021/10/18 00:20:26;;;;;;;27.10;16.15;;;;;;;;;;6277958;22;20262;-61
2021/10/18 00:22:52;;;;;;;27.23;15.77;;;;;;;;;;6278194;22;20147;-61
2021/10/18 00:25:19;;;;;;;26.08;15.85;;;;;;;;;;6277945;22;20551;-61
2021/10/18 00:27:45;;;;;;;25.75;16.05;;;;;;;;;;6278579;22;20155;-61
2021/10/18 00:30:12;;;;;;;25.52;16.05;;;;;;;;;;6277914;22;20139;-61
2021/10/18 00:32:38;;;;;;;24.30;15.25;;;;;;;;;;6277912;22;20505;-59
2021/10/18 00:35:05;;;;;;;29.52;16.40;;;;;;;;;;6277783;22;20147;-60
2021/10/18 00:37:31;;;;;;;27.63;15.95;;;;;;;;;;6278373;22;20434;-61
2021/10/18 00:39:57;;;;;;;27.25;16.08;;;;;;;;;;6278233;22;20432;-61
2021/10/18 00:42:23;;;;;;;26.48;16.85;;;;;;;;;;6277973;22;20563;-61
2021/10/18 00:44:50;;;;;;;29.30;16.63;;;;;;;;;;6278088;22;20189;-61
2021/10/18 00:47:17;;;;;;;29.02;16.48;;;;;;;;;;6277899;22;20143;-61
2021/10/18 00:49:42;;;;;;;26.75;16.58;;;;;;;;;;6278034;22;20148;-61
2021/10/18 00:52:09;;;;;;;26.65;16.42;;;;;;;;;;6277587;22;20209;-61
2021/10/18 00:54:35;;;;;;;26.33;16.17;;;;;;;;;;6277662;22;20144;-61
2021/10/18 00:57:01;;;;;;;29.17;16.75;;;;;;;;;;6277614;22;20286;-60
2021/10/18 00:59:27;;;;;;;29.92;17.00;;;;;;;;;;6277753;22;20282;-60
2021/10/18 01:01:53;;;;;;;30.77;16.98;;;;;;;;;;6277775;22;20194;-61
2021/10/18 01:04:19;;;;;;;29.00;16.88;;;;;;;;;;6277540;22;20498;-61
2021/10/18 01:06:45;;;;;;;24.70;16.42;;;;;;;;;;6277733;22;20178;-60
2021/10/18 01:09:11;;;;;;;28.33;17.67;;;;;;;;;;6277468;22;20146;-61
2021/10/18 01:11:37;;;;;;;27.50;17.27;;;;;;;;;;6277580;22;20147;-61
2021/10/18 01:14:03;;;;;;;28.73;16.55;;;;;;;;;;6277558;22;20158;-61
2021/10/18 01:16:29;;;;;;;28.45;16.20;;;;;;;;;;6277302;22;20438;-61
2021/10/18 01:18:55;;;;;;;29.52;17.85;;;;;;;;;;6277570;22;20517;-60
2021/10/18 01:21:21;;;;;;;26.20;17.73;;;;;;;;;;6277396;22;20177;-61
2021/10/18 01:23:47;;;;;;;27.17;17.17;;;;;;;;;;6250659;22;20551;-61
2021/10/18 01:26:13;;;;;;;25.65;16.55;;;;;;;;;;6277139;22;20163;-61
2021/10/18 01:28:39;;;;;;;29.13;17.10;;;;;;;;;;6277406;22;20193;-61
2021/10/18 01:31:05;;;;;;;29.02;16.73;;;;;;;;;;6277429;22;20558;-61
2021/10/18 01:33:31;;;;;;;27.88;16.90;;;;;;;;;;6277140;22;20140;-61
2021/10/18 01:35:57;;;;;;;27.88;17.33;;;;;;;;;;6277259;22;20151;-61
2021/10/18 01:38:23;;;;;;;25.00;16.65;;;;;;;;;;6277016;22;20150;-61
2021/10/18 01:40:49;;;;;;;27.52;15.15;;;;;;;;;;6276917;22;20163;-61
2021/10/18 01:43:15;;;;;;;25.95;16.40;;;;;;;;;;6277471;22;20139;-60
2021/10/18 01:45:41;;;;;;;25.30;16.08;;;;;;;;;;6276823;22;20147;-61
2021/10/18 01:48:06;;;;;;;27.77;17.17;;;;;;;;;;6276946;22;20135;-61
2021/10/18 01:50:32;;;;;;;23.60;15.88;;;;;;;;;;6276943;22;20147;-61
2021/10/18 01:52:58;;;;;;;25.05;16.45;;;;;;;;;;6277209;22;20226;-61
2021/10/18 01:55:24;;;;;;;25.98;15.70;;;;;;;;;;6277504;22;20147;-60
2021/10/18 01:57:51;;;;;;;24.58;16.73;;;;;;;;;;6277347;22;20143;-61
2021/10/18 02:00:17;;;;;;;25.90;16.55;;;;;;;;;;6277343;22;20229;-61
2021/10/18 02:02:43;;;;;;;24.40;15.82;;;;;;;;;;6277148;22;20582;-61
2021/10/18 02:05:09;;;;;;;25.17;16.15;;;;;;;;;;6277056;22;20132;-61
2021/10/18 02:07:35;;;;;;;24.58;15.82;;;;;;;;;;6276979;22;20136;-60
2021/10/18 02:10:01;;;;;;;28.95;17.27;;;;;;;;;;6277155;22;20147;-61
2021/10/18 02:12:28;;;;;;;25.08;15.85;;;;;;;;;;6276988;22;20139;-61
2021/10/18 02:14:54;;;;;;;25.08;17.02;;;;;;;;;;6277338;22;20478;-61
2021/10/18 02:17:19;;;;;;;27.38;17.60;;;;;;;;;;6276815;22;20136;-61
2021/10/18 02:19:45;;;;;;;28.27;16.75;;;;;;;;;;6276994;22;20140;-60
2021/10/18 02:22:12;;;;;;;27.70;17.25;;;;;;;;;;6276697;22;20514;-61
2021/10/18 02:24:38;;;;;;;25.95;17.35;;;;;;;;;;6250244;22;20155;-61
2021/10/18 02:27:03;;;;;;;27.42;18.23;;;;;;;;;;6276738;22;20155;-61
2021/10/18 02:29:29;;;;;;;32.13;18.70;;;;;;;;;;6277069;22;20621;-61
2021/10/18 02:31:55;;;;;;;30.92;18.95;;;;;;;;;;6276742;22;20166;-61
2021/10/18 02:34:21;;;;;;;27.92;18.10;;;;;;;;;;6276495;22;20166;-61
2021/10/18 02:36:47;;;;;;;30.00;18.70;;;;;;;;;;6276633;22;20552;-60
2021/10/18 02:39:13;;;;;;;30.60;19.20;;;;;;;;;;6276588;22;20150;-61
2021/10/18 02:41:39;;;;;;;30.17;18.73;;;;;;;;;;6276950;22;20174;-61
2021/10/18 02:44:05;;;;;;;30.00;18.80;;;;;;;;;;6276576;22;20139;-61
2021/10/18 02:46:31;;;;;;;32.97;19.58;;;;;;;;;;6276402;22;20143;-61
2021/10/18 02:48:57;;;;;;;30.27;18.95;;;;;;;;;;6276480;22;20136;-61
2021/10/18 02:51:23;;;;;;;30.23;18.70;;;;;;;;;;6276315;22;20148;-61
2021/10/18 02:53:49;;;;;;;30.48;19.27;;;;;;;;;;6276366;22;20150;-61
2021/10/18 02:56:15;;;;;;;29.38;18.15;;;;;;;;;;6276391;22;20150;-61
2021/10/18 02:58:41;;;;;;;25.75;17.75;;;;;;;;;;6278437;22;20152;-61
2021/10/18 03:01:07;;;;;;;33.63;18.65;;;;;;;;;;6251713;22;20174;-61
2021/10/18 03:03:32;;;;;;;31.88;19.00;;;;;;;;;;6278548;22;20136;-61
2021/10/18 03:05:58;;;;;;;28.95;18.15;;;;;;;;;;6278863;22;20555;-61
2021/10/18 03:08:24;;;;;;;25.52;16.92;;;;;;;;;;6251909;22;20147;-61
2021/10/18 03:10:50;;;;;;;30.63;18.15;;;;;;;;;;6251744;22;20151;-60
2021/10/18 03:13:17;;;;;;;28.98;18.05;;;;;;;;;;6278499;22;20140;-61
2021/10/18 03:15:42;;;;;;;28.38;17.88;;;;;;;;;;6278928;22;20143;-61
2021/10/18 03:18:08;;;;;;;31.42;18.83;;;;;;;;;;6278821;22;20154;-61
2021/10/18 03:20:34;;;;;;;31.85;17.75;;;;;;;;;;6278736;22;20167;-61
2021/10/18 03:23:00;;;;;;;31.10;17.98;;;;;;;;;;6279396;22;20431;-61
2021/10/18 03:25:26;;;;;;;27.13;17.95;;;;;;;;;;6278791;22;20216;-61
2021/10/18 03:27:52;;;;;;;32.63;18.40;;;;;;;;;;6279304;22;20136;-61
2021/10/18 03:30:18;;;;;;;27.63;18.08;;;;;;;;;;6279070;22;20540;-60
2021/10/18 03:32:44;;;;;;;30.25;19.10;;;;;;;;;;6278958;22;20422;-61
2021/10/18 03:35:10;;;;;;;29.40;17.95;;;;;;;;;;6278593;22;20139;-60
2021/10/18 03:37:36;;;;;;;30.13;18.83;;;;;;;;;;6278912;22;20140;-61
2021/10/18 03:40:02;;;;;;;29.80;18.55;;;;;;;;;;6279600;22;20147;-61
2021/10/18 03:42:28;;;;;;;30.33;19.17;;;;;;;;;;6279128;22;20478;-61
2021/10/18 03:44:54;;;;;;;30.83;18.60;;;;;;;;;;6278697;22;20150;-61
2021/10/18 03:47:19;;;;;;;32.10;19.63;;;;;;;;;;6278527;22;20197;-61
2021/10/18 03:49:45;;;;;;;31.55;19.05;;;;;;;;;;6251836;22;20185;-60
2021/10/18 03:52:11;;;;;;;31.30;19.33;;;;;;;;;;6280001;22;20190;-61
2021/10/18 03:54:37;;;;;;;34.60;19.98;;;;;;;;;;6280026;22;20154;-61
2021/10/18 03:57:03;;;;;;;31.10;19.15;;;;;;;;;;6279073;22;20147;-61
2021/10/18 03:59:29;;;;;;;31.55;20.02;;;;;;;;;;6278486;22;20139;-61
2021/10/18 04:01:55;;;;;;;33.35;18.92;;;;;;;;;;6278272;22;20468;-61
2021/10/18 04:04:21;;;;;;;28.23;18.48;;;;;;;;;;6278399;22;20147;-61
2021/10/18 04:06:47;;;;;;;31.63;19.80;;;;;;;;;;6278938;22;20148;-60
2021/10/18 04:09:14;;;;;;;31.58;19.20;;;;;;;;;;6278990;22;20139;-61
2021/10/18 04:11:41;;;;;;;30.92;19.27;;;;;;;;;;6279011;22;20162;-61
2021/10/18 04:14:07;;;;;;;30.65;17.92;;;;;;;;;;6278958;22;20147;-61
2021/10/18 04:16:33;;;;;;;31.40;19.10;;;;;;;;;;6279007;22;20144;-61
2021/10/18 04:19:00;;;;;;;32.33;19.27;;;;;;;;;;6279757;22;20187;-61
2021/10/18 04:21:26;;;;;;;31.15;19.25;;;;;;;;;;6279085;22;20160;-61
2021/10/18 04:23:52;;;;;;;30.27;18.88;;;;;;;;;;6279456;22;20150;-61
2021/10/18 04:26:18;;;;;;;32.72;20.00;;;;;;;;;;6278721;22;20410;-61
2021/10/18 04:28:44;;;;;;;31.45;19.90;;;;;;;;;;6278582;22;20140;-60
2021/10/18 04:31:09;;;;;;;33.40;19.33;;;;;;;;;;6278156;22;20171;-61
2021/10/18 04:33:35;;;;;;;29.02;19.40;;;;;;;;;;6278576;22;20227;-61
2021/10/18 04:36:02;;;;;;;31.50;19.45;;;;;;;;;;6278271;22;20637;-61
2021/10/18 04:38:28;;;;;;;29.92;19.33;;;;;;;;;;6278794;22;20223;-61
2021/10/18 04:40:54;;;;;;;28.05;17.92;;;;;;;;;;6277803;22;20159;-61
2021/10/18 04:43:19;;;;;;;30.55;19.52;;;;;;;;;;6277941;22;20149;-61
2021/10/18 04:45:45;;;;;;;28.52;17.30;;;;;;;;;;6278236;22;20223;-61
2021/10/18 04:48:11;;;;;;;30.65;18.30;;;;;;;;;;6278109;22;20501;-61
2021/10/18 04:50:37;;;;;;;29.67;17.90;;;;;;;;;;6277622;22;20143;-61
2021/10/18 04:53:03;;;;;;;28.17;18.40;;;;;;;;;;6277554;22;20144;-60
2021/10/18 04:55:29;;;;;;;28.98;18.83;;;;;;;;;;6277448;22;20293;-61
2021/10/18 04:57:56;;;;;;;31.92;18.50;;;;;;;;;;6277211;22;20571;-61
2021/10/18 05:00:24;;;;;;;31.88;18.15;;;;;;;;;;6277298;22;20593;-61
2021/10/18 05:02:49;;;;;;;25.67;17.27;;;;;;;;;;6277820;22;20143;-60
2021/10/18 05:05:16;;;;;;;26.85;18.17;;;;;;;;;;6277294;22;20214;-61
2021/10/18 05:07:42;;;;;;;28.15;17.70;;;;;;;;;;6277200;22;20159;-60
2021/10/18 05:10:09;;;;;;;26.75;17.95;;;;;;;;;;6277479;22;20151;-61
2021/10/18 05:12:35;;;;;;;26.25;17.83;;;;;;;;;;6277535;22;20200;-61
2021/10/18 05:15:01;;;;;;;27.85;18.70;;;;;;;;;;6277946;22;20187;-60
2021/10/18 05:17:27;;;;;;;27.80;17.27;;;;;;;;;;6277494;22;20151;-61
2021/10/18 05:19:53;;;;;;;26.10;17.30;;;;;;;;;;6277135;22;20135;-61
2021/10/18 05:22:19;;;;;;;24.17;17.52;;;;;;;;;;6277126;22;20162;-61
2021/10/18 05:24:45;;;;;;;23.10;15.68;;;;;;;;;;6277183;22;20146;-61
2021/10/18 05:27:11;;;;;;;26.75;17.10;;;;;;;;;;6276976;22;20148;-61
2021/10/18 05:29:37;;;;;;;27.38;17.33;;;;;;;;;;6278259;22;20139;-63
2021/10/18 05:32:04;;;;;;;22.02;15.80;;;;;;;;;;6281558;22;20140;-63
2021/10/18 05:34:30;;;;;;;23.40;16.58;;;;;;;;;;6281889;22;20582;-63
2021/10/18 05:36:56;;;;;;;23.40;16.25;;;;;;;;;;6281636;22;20147;-63
2021/10/18 05:39:22;;;;;;;23.85;15.63;;;;;;;;;;6281392;22;20226;-63
2021/10/18 05:41:48;;;;;;;28.33;16.45;;;;;;;;;;6281885;22;20268;-63
2021/10/18 05:44:14;;;;;;;24.55;15.52;;;;;;;;;;6282063;22;20195;-63
2021/10/18 05:46:40;;;;;;;21.92;15.80;;;;;;;;;;6282315;22;20139;-63
2021/10/18 05:49:06;;;;;;;26.45;15.95;;;;;;;;;;6281840;22;20139;-63
2021/10/18 05:51:32;;;;;;;24.23;15.85;;;;;;;;;;6282064;22;20200;-63
2021/10/18 05:53:59;;;;;;;22.88;15.23;;;;;;;;;;6281676;22;20144;-63
2021/10/18 05:56:25;;;;;;;30.33;16.17;;;;;;;;;;6282143;22;20210;-63
2021/10/18 05:58:51;;;;;;;25.48;15.73;;;;;;;;;;6281816;22;20162;-63
2021/10/18 06:01:17;;;;;;;23.02;15.38;;;;;;;;;;6281561;22;20563;-63
2021/10/18 06:03:43;;;;;;;24.25;15.80;;;;;;;;;;6281682;22;20150;-63
2021/10/18 06:06:11;;;;;;;24.75;15.35;;;;;;;;;;6281811;22;20504;-63
2021/10/18 06:08:37;;;;;;;22.70;15.95;;;;;;;;;;6281462;22;20222;-63
2021/10/18 06:11:04;;;;;;;24.17;15.10;;;;;;;;;;6281142;22;20143;-63
2021/10/18 06:13:30;;;;;;;23.65;15.00;;;;;;;;;;6281336;22;20162;-62
2021/10/18 06:15:56;;;;;;;24.27;14.90;;;;;;;;;;6281984;22;20448;-62
2021/10/18 06:18:22;;;;;;;25.17;15.57;;;;;;;;;;6281303;22;20150;-62
2021/10/18 06:20:50;;;;;;;21.88;15.00;;;;;;;;;;6281440;22;20170;-62
2021/10/18 06:23:16;;;;;;;22.48;14.88;;;;;;;;;;6281088;22;20158;-62
2021/10/18 06:25:43;;;;;;;23.05;14.45;;;;;;;;;;6281181;22;20518;-63
2021/10/18 06:28:09;;;;;;;19.30;14.35;;;;;;;;;;6280931;22;20140;-62
2021/10/18 06:30:35;;;;;;;22.40;14.57;;;;;;;;;;6254367;22;20148;-62
2021/10/18 06:33:03;;;;;;;20.85;14.63;;;;;;;;;;6282386;22;20153;-62
2021/10/18 06:35:29;;;;;;;24.13;14.52;;;;;;;;;;6284309;22;20238;-62
2021/10/18 06:37:55;;;;;;;21.20;14.55;;;;;;;;;;6283704;22;20140;-62
2021/10/18 06:40:21;;;;;;;22.05;14.38;;;;;;;;;;6283879;22;20167;-62
2021/10/18 06:42:47;;;;;;;22.80;14.13;;;;;;;;;;6282557;22;20147;-62
2021/10/18 06:45:13;;;;;;;21.45;13.15;;;;;;;;;;6283378;22;20136;-62
2021/10/18 06:47:39;;;;;;;20.27;13.55;;;;;;;;;;6282436;22;20488;-62
2021/10/18 06:50:05;;;;;;;21.63;13.65;;;;;;;;;;6281781;22;20491;-62
2021/10/18 06:52:35;;;;;;;24.02;13.30;;;;;;;;;;6281732;22;20150;-62
2021/10/18 06:55:04;;;;;;;22.58;13.02;;;;;;;;;;6282242;22;20124;-62
2021/10/18 06:57:30;;;;;;;22.08;13.88;;;;;;;;;;6282686;22;20434;-62
2021/10/18 06:59:56;;;;;;;23.08;13.13;;;;;;;;;;6282193;22;20550;-62
2021/10/18 07:02:22;;;;;;;18.83;13.63;;;;;;;;;;6282988;22;20177;-62
2021/10/18 07:04:48;;;;;;;20.25;13.43;;;;;;;;;;6283166;22;20650;-62
2021/10/18 07:07:14;;;;;;;20.50;13.10;;;;;;;;;;6281771;22;20273;-62
2021/10/18 07:09:42;;;;;;;20.52;12.48;;;;;;;;;;6282133;22;20261;-62
2021/10/18 07:12:08;;;;;;;17.42;12.10;;;;;;;;;;6282536;22;20154;-62
2021/10/18 07:14:34;;;;;;;19.85;12.98;;;;;;;;;;6281861;22;20514;-62
2021/10/18 07:17:00;;;;;;;22.52;12.43;;;;;;;;;;6281795;22;20147;-62
2021/10/18 07:19:26;;;;;;;18.23;11.95;;;;;;;;;;6280709;22;20146;-62
2021/10/18 07:21:52;;;;;;;17.65;12.00;;;;;;;;;;6280173;22;20554;-62
2021/10/18 07:24:18;;;;;;;15.73;11.88;;;;;;;;;;6280400;22;20201;-62
2021/10/18 07:26:47;;;;;;;19.52;12.48;;;;;;;;;;6280099;22;20158;-62
2021/10/18 07:29:13;;;;;;;18.27;11.43;;;;;;;;;;6281026;22;20223;-62
2021/10/18 07:31:41;;;;;;;17.60;11.20;;;;;;;;;;6281975;22;20609;-62
2021/10/18 07:34:13;;;;;;;15.63;10.98;;;;;;;;;;6280581;22;20147;-62
2021/10/18 07:36:47;;;;;;;16.70;10.93;;;;;;;;;;6279787;22;20435;-62
2021/10/18 07:39:13;;;;;;;18.38;11.02;;;;;;;;;;6279206;22;20128;-62
2021/10/18 07:41:39;;;;;;;13.32;10.38;;;;;;;;;;6278928;22;20450;-62
2021/10/18 07:44:05;;;;;;;12.95;9.35;;;;;;;;;;6278407;22;20135;-62
2021/10/18 07:46:31;;;;;;;14.25;9.82;;;;;;;;;;6278661;22;20196;-63
2021/10/18 07:48:57;;;;;;;11.45;9.95;;;;;;;;;;6279043;22;20139;-64
2021/10/18 07:51:23;;;;;;;15.48;9.60;;;;;;;;;;6278811;22;20144;-64
2021/10/18 07:53:49;;;;;;;14.23;9.60;;;;;;;;;;6278555;22;20150;-64
2021/10/18 07:56:15;;;;;;;12.43;9.55;;;;;;;;;;6278319;22;20139;-64
2021/10/18 07:58:41;;;;;;;15.35;9.95;;;;;;;;;;6278645;22;20206;-64
2021/10/18 08:01:07;;;;;;;13.52;9.68;;;;;;;;;;6278249;22;20169;-63
2021/10/18 08:03:33;;;;;;;13.07;9.45;;;;;;;;;;6279039;22;20462;-63
2021/10/18 08:05:59;;;;;;;12.55;9.68;;;;;;;;;;6279093;22;20230;-63
2021/10/18 08:08:30;;;;;;;15.70;10.05;;;;;;;;;;6279089;22;20146;-63
2021/10/18 08:10:56;;;;;;;13.43;10.55;;;;;;;;;;6279559;22;20128;-63
2021/10/18 08:13:22;;;;;;;15.60;9.48;;;;;;;;;;6280173;22;20218;-63
2021/10/18 08:15:48;;;;;;;14.25;10.15;;;;;;;;;;6279242;22;20170;-63
2021/10/18 08:18:13;;;;;;;16.42;10.73;;;;;;;;;;6281039;22;20499;-63
2021/10/18 08:20:40;;;;;;;16.95;10.82;;;;;;;;;;6279148;22;20159;-63
2021/10/18 08:23:07;;;;;;;16.85;10.25;;;;;;;;;;6279986;22;20143;-63
2021/10/18 08:25:32;;;;;;;13.95;10.07;;;;;;;;;;6279580;22;20162;-63
2021/10/18 08:27:58;;;;;;;15.13;10.20;;;;;;;;;;6279370;22;20160;-64
2021/10/18 08:30:24;;;;;;;16.40;10.75;;;;;;;;;;6279219;22;20197;-63
2021/10/18 08:32:50;;;;;;;12.38;8.90;;;;;;;;;;6279975;22;20617;-63
2021/10/18 08:35:16;;;;;;;19.63;10.93;;;;;;;;;;6279512;22;20154;-63
2021/10/18 08:40:32;;;;;;;16.08;10.45;;;;;;;;;;6278757;22;20236;-62
2021/10/18 08:43:02;;;;;;;19.45;13.02;;;;;;;;;;6279310;22;20132;-62
2021/10/18 08:45:28;;;;;;;13.55;10.30;;;;;;;;;;6278690;22;20131;-62
2021/10/18 08:47:55;;;;;;;17.73;10.63;;;;;;;;;;6278142;22;20201;-62
2021/10/18 08:50:21;;;;;;;20.90;10.80;;;;;;;;;;6277302;22;20144;-62
2021/10/18 08:52:48;;;;;;;16.02;11.25;;;;;;;;;;6277614;22;20450;-62
2021/10/18 08:55:13;;;;;;;21.17;11.68;;;;;;;;;;6277358;22;20140;-62
2021/10/18 08:57:40;;;;;;;16.83;11.07;;;;;;;;;;6278307;22;20144;-62
2021/10/18 09:00:06;;;;;;;15.50;11.23;;;;;;;;;;6278412;22;20620;-62
2021/10/18 09:02:36;;;;;;;15.88;10.77;;;;;;;;;;6278602;22;20226;-62
2021/10/18 09:05:04;;;;;;;18.02;11.65;;;;;;;;;;6278461;22;20235;-62
2021/10/18 09:07:34;;;;;;;18.98;11.30;;;;;;;;;;6278076;22;20140;-62
2021/10/18 09:10:01;;;;;;;18.92;10.68;;;;;;;;;;6278627;22;20223;-62
2021/10/18 09:12:28;;;;;;;18.15;11.65;;;;;;;;;;6279817;22;20430;-62
2021/10/18 09:14:58;;;;;;;17.42;12.10;;;;;;;;;;6280088;22;20468;-62
2021/10/18 09:17:34;;;;;;;17.38;11.45;;;;;;;;;;6279656;22;20132;-62
2021/10/18 09:20:18;;;;;;;15.27;10.68;;;;;;;;;;6279320;22;20174;-62
2021/10/18 09:22:44;;;;;;;18.73;11.75;;;;;;;;;;6278955;22;20610;-61
2021/10/18 09:25:10;;;;;;;14.07;10.55;;;;;;;;;;6278702;22;20140;-62
2021/10/18 09:27:36;;;;;;;19.00;10.90;;;;;;;;;;6279525;22;20136;-62
2021/10/18 09:30:03;;;;;;;14.65;10.90;;;;;;;;;;6278549;22;20154;-62
2021/10/18 09:32:30;;;;;;;14.82;10.75;;;;;;;;;;6279451;22;20148;-62
2021/10/18 09:35:06;;;;;;;14.18;10.15;;;;;;;;;;6278941;22;20144;-61
2021/10/18 09:37:38;;;;;;;14.90;10.20;;;;;;;;;;6279394;22;20150;-62
2021/10/18 09:40:05;;;;;;;17.38;10.75;;;;;;;;;;6279447;22;20143;-62
2021/10/18 09:42:30;;;;;;;14.52;10.35;;;;;;;;;;6279041;22;20135;-62
2021/10/18 10:51:58;;;;;;;17.60;10.68;;;;;;;;;;6278052;22;20139;-62
2021/10/18 10:54:46;;;;;;;19.45;11.25;;;;;;;;;;6277698;22;20135;-62
2021/10/18 10:57:12;;;;;;;14.93;11.55;;;;;;;;;;6277717;22;20124;-64
2021/10/18 10:59:49;;;;;;;14.48;11.32;;;;;;;;;;6277568;22;20227;-63
2021/10/18 11:02:25;;;;;;;16.83;11.25;;;;;;;;;;6277215;22;20162;-64
2021/10/18 11:04:54;;;;;;;15.10;10.90;;;;;;;;;;6277748;22;20135;-63
2021/10/18 11:07:21;;;;;;;17.30;11.30;;;;;;;;;;6277729;22;20148;-63
2021/10/18 11:09:49;;;;;;;16.85;11.77;;;;;;;;;;6277890;22;20209;-64
2021/10/18 11:12:18;;;;;;;16.48;11.38;;;;;;;;;;6278250;22;20148;-64
2021/10/18 11:14:51;;;;;;;21.48;13.10;;;;;;;;;;6278179;22;20213;-63
2021/10/18 11:17:17;;;;;;;18.27;12.45;;;;;;;;;;6278387;22;20142;-63
2021/10/18 11:19:51;;;;;;;20.65;11.18;;;;;;;;;;6279328;22;20215;-64
2021/10/18 11:22:24;;;;;;;15.63;11.30;;;;;;;;;;6279862;22;20217;-63
2021/10/18 11:24:50;;;;;;;19.42;11.95;;;;;;;;;;6279404;22;20451;-63
2021/10/18 11:27:22;;;;;;;15.43;11.45;;;;;;;;;;6279423;22;20183;-63
2021/10/18 11:29:54;;;;;;;15.93;10.65;;;;;;;;;;6280164;22;20124;-63
2021/10/18 11:32:20;;;;;;;16.27;11.18;;;;;;;;;;6279804;22;20131;-63
2021/10/18 11:34:46;;;;;;;14.10;10.32;;;;;;;;;;6280111;22;20202;-63
2021/10/18 11:37:12;;;;;;;17.08;10.73;;;;;;;;;;6280472;22;20139;-63
2021/10/18 11:39:38;;;;;;;17.52;10.48;;;;;;;;;;6280168;22;20209;-63
2021/10/18 11:42:05;;;;;;;15.30;10.48;;;;;;;;;;6279779;22;20194;-63
2021/10/18 11:44:49;;;;;;;16.13;11.35;;;;;;;;;;6280503;22;20140;-63
2021/10/18 11:47:25;;;;;;;15.73;10.55;;;;;;;;;;6280610;22;20430;-63
2021/10/18 11:50:03;;;;;;;14.55;10.63;;;;;;;;;;6280312;22;20146;-63
2021/10/18 11:52:29;;;;;;;16.80;10.32;;;;;;;;;;6280445;22;20600;-63
2021/10/18 11:54:55;;;;;;;14.90;9.95;;;;;;;;;;6280570;22;20175;-63
2021/10/18 11:57:21;;;;;;;17.50;10.10;;;;;;;;;;6280190;22;20140;-63
2021/10/18 11:59:47;;;;;;;15.80;9.60;;;;;;;;;;6280148;22;20143;-63
2021/10/18 12:02:19;;;;;;;14.98;9.65;;;;;;;;;;6279879;22;20582;-63
2021/10/18 12:04:59;;;;;;;14.68;10.27;;;;;;;;;;6280037;22;20219;-63
2021/10/18 12:07:44;;;;;;;13.52;9.68;;;;;;;;;;6280069;22;20150;-63
2021/10/18 12:10:13;;;;;;;14.13;9.57;;;;;;;;;;6279810;22;20140;-63
2021/10/18 12:12:39;;;;;;;15.20;9.45;;;;;;;;;;6279687;22;20201;-63
2021/10/18 12:15:06;;;;;;;15.88;9.75;;;;;;;;;;6280268;22;20167;-63
2021/10/18 12:17:34;;;;;;;12.35;8.93;;;;;;;;;;6279577;22;20218;-63
2021/10/18 12:20:00;;;;;;;13.65;9.20;;;;;;;;;;6279747;22;20143;-63
2021/10/18 12:22:26;;;;;;;13.93;9.05;;;;;;;;;;6279967;22;20213;-63
2021/10/18 12:25:04;;;;;;;13.57;9.02;;;;;;;;;;6280511;22;20136;-63
2021/10/18 12:27:30;;;;;;;10.80;8.30;;;;;;;;;;6279953;22;20201;-63
2021/10/18 12:29:56;;;;;;;11.20;7.72;;;;;;;;;;6279222;22;20140;-63
2021/10/18 12:32:22;;;;;;;13.82;8.20;;;;;;;;;;6280041;22;20238;-63
2021/10/18 12:35:01;;;;;;;11.93;7.82;;;;;;;;;;6279470;22;20139;-63
2021/10/18 12:37:27;;;;;;;13.15;7.85;;;;;;;;;;6280229;22;20193;-63
2021/10/18 12:39:56;;;;;;;10.20;7.03;;;;;;;;;;6279812;22;20144;-63
2021/10/18 12:42:22;;;;;;;11.30;7.40;;;;;;;;;;6279490;22;20174;-63
2021/10/18 12:44:49;;;;;;;10.27;7.95;;;;;;;;;;6279602;22;20567;-63
2021/10/18 12:47:17;;;;;;;11.95;7.70;;;;;;;;;;6279531;22;20531;-64
2021/10/18 12:49:51;;;;;;;10.30;7.25;;;;;;;;;;6280054;22;20782;-63
2021/10/18 12:52:25;;;;;;;10.02;7.35;;;;;;;;;;6279729;22;20135;-63
2021/10/18 12:54:51;;;;;;;11.15;6.78;;;;;;;;;;6279265;22;20127;-63
2021/10/18 12:57:17;;;;;;;10.13;7.13;;;;;;;;;;6252802;22;20205;-63
2021/10/18 13:00:09;;;;;;;7.63;6.18;;;;;;;;;;6280135;22;20143;-63
2021/10/18 13:02:39;;;;;;;9.77;6.20;;;;;;;;;;6276256;22;20151;-63
2021/10/18 13:05:05;;;;;;;8.15;5.90;;;;;;;;;;6279984;22;20132;-63
2021/10/18 13:07:35;;;;;;;8.38;6.30;;;;;;;;;;6279245;22;20257;-63
2021/10/18 13:10:02;;;;;;;9.63;6.10;;;;;;;;;;6279529;22;20515;-63
2021/10/18 13:12:28;;;;;;;8.77;5.82;;;;;;;;;;6279530;22;20448;-63
2021/10/18 13:14:54;;;;;;;7.30;5.55;;;;;;;;;;6280242;22;20547;-63
2021/10/18 13:17:21;;;;;;;6.30;5.70;;;;;;;;;;6279875;22;20212;-63
2021/10/18 13:19:47;;;;;;;5.95;5.18;;;;;;;;;;6279904;22;20143;-63
2021/10/18 13:22:13;;;;;;;7.07;4.85;;;;;;;;;;6252457;22;20507;-63
2021/10/18 13:24:39;;;;;;;7.95;4.80;;;;;;;;;;6280139;22;20471;-63
2021/10/18 13:27:05;;;;;;;5.60;4.78;;;;;;;;;;6279496;22;20154;-63
2021/10/18 13:29:31;;;;;;;8.23;5.45;;;;;;;;;;6279710;22;20234;-63
2021/10/18 13:31:57;;;;;;;7.10;5.28;;;;;;;;;;6279808;22;20143;-63
2021/10/18 13:34:23;;;;;;;5.88;4.88;;;;;;;;;;6279292;22;20152;-63
2021/10/18 13:36:49;;;;;;;7.88;5.00;;;;;;;;;;6278374;22;20143;-63
2021/10/18 13:39:15;;;;;;;9.52;5.00;;;;;;;;;;6277427;22;20139;-63
2021/10/18 13:41:41;;;;;;;7.15;4.75;;;;;;;;;;6276617;22;20224;-63
2021/10/18 13:44:08;;;;;;;7.07;4.45;;;;;;;;;;6277288;22;20608;-64
2021/10/18 13:46:34;;;;;;;8.10;4.10;;;;;;;;;;6277242;22;20154;-63
2021/10/18 13:49:00;;;;;;;7.30;4.15;;;;;;;;;;6276543;22;20516;-63
2021/10/18 13:51:27;;;;;;;12.35;5.20;;;;;;;;;;6276914;22;20143;-63
2021/10/18 13:53:54;;;;;;;7.22;4.25;;;;;;;;;;6276921;22;20154;-63
2021/10/18 13:56:21;;;;;;;5.93;4.18;;;;;;;;;;6276897;22;20452;-63
2021/10/18 13:58:47;;;;;;;5.78;3.80;;;;;;;;;;6276388;22;20589;-64
2021/10/18 14:01:13;;;;;;;5.70;4.18;;;;;;;;;;6276552;22;20163;-63
2021/10/18 14:03:39;;;;;;;6.70;4.40;;;;;;;;;;6276581;22;20155;-63
2021/10/18 14:06:05;;;;;;;4.97;4.13;;;;;;;;;;6276493;22;20135;-63
2021/10/18 14:08:31;;;;;;;5.95;4.60;;;;;;;;;;6276449;22;20147;-63
2021/10/18 14:10:57;;;;;;;5.97;4.18;;;;;;;;;;6276562;22;20201;-64
2021/10/18 14:13:23;;;;;;;9.45;4.43;;;;;;;;;;6276716;22;20146;-63
2021/10/18 14:15:49;;;;;;;7.63;4.00;;;;;;;;;;6276374;22;20147;-64
2021/10/18 14:18:15;;;;;;;6.20;4.05;;;;;;;;;;6276978;22;20150;-63
2021/10/18 14:20:41;;;;;;;5.95;3.90;;;;;;;;;;6276786;22;20162;-63
2021/10/18 14:23:07;;;;;;;8.68;4.15;;;;;;;;;;6276532;22;20139;-63
2021/10/18 14:25:33;;;;;;;6.25;4.22;;;;;;;;;;6276651;22;20166;-63
2021/10/18 14:28:00;;;;;;;6.07;4.47;;;;;;;;;;6276954;22;20167;-63
2021/10/18 14:30:26;;;;;;;7.05;4.53;;;;;;;;;;6277168;22;20151;-63
2021/10/18 14:32:53;;;;;;;5.80;4.40;;;;;;;;;;6276919;22;20143;-63
2021/10/18 14:35:20;;;;;;;6.80;5.30;;;;;;;;;;6276596;22;20237;-63
2021/10/18 14:37:46;;;;;;;6.78;4.55;;;;;;;;;;6276511;22;20212;-63
2021/10/18 14:40:12;;;;;;;7.20;4.47;;;;;;;;;;6276858;22;20229;-63
2021/10/18 14:42:38;;;;;;;6.03;4.70;;;;;;;;;;6276518;22;20449;-62
2021/10/18 14:45:05;;;;;;;5.63;4.28;;;;;;;;;;6276766;22;20147;-62
2021/10/18 14:47:31;;;;;;;4.90;4.43;;;;;;;;;;6276604;22;20563;-63
2021/10/18 14:49:57;;;;;;;7.57;4.40;;;;;;;;;;6277020;22;20142;-63
2021/10/18 14:52:23;;;;;;;6.10;4.30;;;;;;;;;;6277352;22;20154;-63
2021/10/18 14:54:49;;;;;;;5.45;4.20;;;;;;;;;;6278103;22;20602;-63
2021/10/18 14:57:15;;;;;;;5.55;4.22;;;;;;;;;;6278424;22;20158;-62
2021/10/18 14:59:41;;;;;;;6.78;4.22;;;;;;;;;;6278640;22;20222;-63
2021/10/18 15:02:14;;;;;;;6.38;4.15;;;;;;;;;;6278432;22;20174;-63
2021/10/18 15:04:40;;;;;;;6.43;4.18;;;;;;;;;;6277827;22;20150;-64
2021/10/18 15:07:06;;;;;;;5.22;4.22;;;;;;;;;;6277919;22;20205;-64
2021/10/18 15:09:32;;;;;;;4.38;3.97;;;;;;;;;;6277950;22;20143;-63
2021/10/18 15:11:58;;;;;;;5.35;4.30;;;;;;;;;;6277871;22;20443;-63
2021/10/18 15:14:24;;;;;;;4.68;3.90;;;;;;;;;;6277916;22;20143;-64
2021/10/18 15:16:51;;;;;;;5.00;3.65;;;;;;;;;;6279518;22;20177;-63
2021/10/18 15:19:16;;;;;;;6.55;4.15;;;;;;;;;;6280047;22;20147;-63
2021/10/18 15:21:44;;;;;;;7.55;4.43;;;;;;;;;;6279812;22;20174;-62
2021/10/18 15:24:12;;;;;;;6.60;4.45;;;;;;;;;;6279799;22;20146;-62
2021/10/18 15:26:38;;;;;;;6.72;4.20;;;;;;;;;;6279177;22;20159;-62
2021/10/18 15:29:04;;;;;;;6.72;4.22;;;;;;;;;;6279173;22;20318;-63
2021/10/18 15:31:31;;;;;;;6.05;4.43;;;;;;;;;;6279734;22;20143;-62